sensor_id;sensor_type;location;lat;lon;timestamp;pressure;altitude;pressure_sealevel;temperature;humidity
17060;BME280;8646;49.716;9.266;2023-07-30T00:01:57;99712.22;;;20.19;92.55
17060;BME280;8646;49.716;9.266;2023-07-30T00:05:01;99691.97;;;20.10;92.54
17060;BME280;8646;49.716;9.266;2023-07-30T00:08:06;99706.59;;;20.30;92.22
17060;BME280;8646;49.716;9.266;2023-07-30T00:11:08;99702.56;;;20.25;92.87
17060;BME280;8646;49.716;9.266;2023-07-30T00:14:11;99694.31;;;20.25;93.17
17060;BME280;8646;49.716;9.266;2023-07-30T00:17:14;99706.88;;;20.27;92.99
17060;BME280;8646;49.716;9.266;2023-07-30T00:20:17;99703.84;;;20.30;92.43
17060;BME280;8646;49.716;9.266;2023-07-30T00:23:21;99712.09;;;20.30;92.09
17060;BME280;8646;49.716;9.266;2023-07-30T00:26:25;99713.25;;;20.28;92.43
17060;BME280;8646;49.716;9.266;2023-07-30T00:29:28;99707.19;;;20.24;92.69
17060;BME280;8646;49.716;9.266;2023-07-30T00:32:30;99710.63;;;20.16;92.92
17060;BME280;8646;49.716;9.266;2023-07-30T00:35:33;99700.22;;;20.10;93.16
17060;BME280;8646;49.716;9.266;2023-07-30T00:38:37;99708.00;;;20.05;92.86
17060;BME280;8646;49.716;9.266;2023-07-30T00:41:40;99699.59;;;19.97;93.00
17060;BME280;8646;49.716;9.266;2023-07-30T00:44:43;99699.28;;;19.91;93.06
17060;BME280;8646;49.716;9.266;2023-07-30T00:47:45;99701.72;;;19.84;92.80
17060;BME280;8646;49.716;9.266;2023-07-30T00:50:48;99707.91;;;19.76;93.42
17060;BME280;8646;49.716;9.266;2023-07-30T00:53:52;99713.09;;;19.70;92.89
17060;BME280;8646;49.716;9.266;2023-07-30T00:56:55;99714.63;;;19.63;93.38
17060;BME280;8646;49.716;9.266;2023-07-30T00:59:58;99725.91;;;19.60;93.41
17060;BME280;8646;49.716;9.266;2023-07-30T01:03:03;99736.00;;;19.59;94.66
17060;BME280;8646;49.716;9.266;2023-07-30T01:06:05;99736.56;;;19.63;93.47
17060;BME280;8646;49.716;9.266;2023-07-30T01:09:10;99742.53;;;19.68;93.09
17060;BME280;8646;49.716;9.266;2023-07-30T01:12:14;99749.63;;;19.70;94.38
17060;BME280;8646;49.716;9.266;2023-07-30T01:15:17;99752.84;;;19.75;93.21
17060;BME280;8646;49.716;9.266;2023-07-30T01:18:22;99751.88;;;19.86;93.46
17060;BME280;8646;49.716;9.266;2023-07-30T01:21:26;99762.13;;;19.84;93.95
17060;BME280;8646;49.716;9.266;2023-07-30T01:24:29;99747.41;;;19.85;94.12
17060;BME280;8646;49.716;9.266;2023-07-30T01:27:36;99759.69;;;19.91;94.73
17060;BME280;8646;49.716;9.266;2023-07-30T01:30:41;99754.06;;;19.92;94.53
17060;BME280;8646;49.716;9.266;2023-07-30T01:33:47;99766.50;;;19.96;95.94
17060;BME280;8646;49.716;9.266;2023-07-30T01:36:53;99760.00;;;19.97;94.85
17060;BME280;8646;49.716;9.266;2023-07-30T01:39:58;99758.88;;;20.00;94.84
17060;BME280;8646;49.716;9.266;2023-07-30T01:43:02;99755.97;;;20.01;95.16
17060;BME280;8646;49.716;9.266;2023-07-30T01:46:05;99762.66;;;20.08;93.78
17060;BME280;8646;49.716;9.266;2023-07-30T01:49:08;99762.34;;;20.11;94.78
17060;BME280;8646;49.716;9.266;2023-07-30T01:52:12;99762.34;;;20.11;94.80
17060;BME280;8646;49.716;9.266;2023-07-30T01:55:15;99760.94;;;20.17;95.74
17060;BME280;8646;49.716;9.266;2023-07-30T01:58:17;99754.41;;;20.08;95.53
17060;BME280;8646;49.716;9.266;2023-07-30T02:01:20;99761.97;;;20.16;95.94
17060;BME280;8646;49.716;9.266;2023-07-30T02:04:23;99756.16;;;20.09;95.94
17060;BME280;8646;49.716;9.266;2023-07-30T02:07:27;99765.56;;;20.16;96.40
17060;BME280;8646;49.716;9.266;2023-07-30T02:10:30;99746.31;;;20.07;96.66
17060;BME280;8646;49.716;9.266;2023-07-30T02:13:33;99772.34;;;20.12;96.51
17060;BME280;8646;49.716;9.266;2023-07-30T02:16:36;99764.72;;;20.16;96.71
17060;BME280;8646;49.716;9.266;2023-07-30T02:19:39;99773.06;;;20.14;96.95
17060;BME280;8646;49.716;9.266;2023-07-30T02:22:43;99774.38;;;20.10;96.91
17060;BME280;8646;49.716;9.266;2023-07-30T02:25:45;99775.38;;;20.09;97.22
17060;BME280;8646;49.716;9.266;2023-07-30T02:28:48;99773.91;;;20.05;97.09
17060;BME280;8646;49.716;9.266;2023-07-30T02:31:51;99773.91;;;20.05;96.62
17060;BME280;8646;49.716;9.266;2023-07-30T02:34:54;99776.38;;;20.08;96.82
17060;BME280;8646;49.716;9.266;2023-07-30T02:37:58;99774.78;;;20.06;96.50
17060;BME280;8646;49.716;9.266;2023-07-30T02:41:01;99775.66;;;20.06;96.46
17060;BME280;8646;49.716;9.266;2023-07-30T02:44:04;99768.41;;;20.05;96.67
17060;BME280;8646;49.716;9.266;2023-07-30T02:47:06;99783.88;;;20.06;96.57
17060;BME280;8646;49.716;9.266;2023-07-30T02:50:09;99783.88;;;20.06;96.37
17060;BME280;8646;49.716;9.266;2023-07-30T02:53:13;99784.63;;;20.08;96.48
17060;BME280;8646;49.716;9.266;2023-07-30T02:56:16;99784.63;;;20.08;96.50
17060;BME280;8646;49.716;9.266;2023-07-30T02:59:19;99784.63;;;20.08;96.77
17060;BME280;8646;49.716;9.266;2023-07-30T03:02:22;99782.63;;;20.10;96.37
17060;BME280;8646;49.716;9.266;2023-07-30T03:05:26;99785.81;;;20.15;95.72
17060;BME280;8646;49.716;9.266;2023-07-30T03:08:33;99788.13;;;20.10;95.62
17060;BME280;8646;49.716;9.266;2023-07-30T03:11:37;99784.50;;;20.10;96.02
17060;BME280;8646;49.716;9.266;2023-07-30T03:14:41;99785.50;;;20.09;96.17
17060;BME280;8646;49.716;9.266;2023-07-30T03:17:43;99786.63;;;20.06;96.16
17060;BME280;8646;49.716;9.266;2023-07-30T03:20:46;99789.25;;;20.08;96.10
17060;BME280;8646;49.716;9.266;2023-07-30T03:23:51;99794.75;;;20.08;96.17
17060;BME280;8646;49.716;9.266;2023-07-30T03:26:53;99792.13;;;20.06;96.19
17060;BME280;8646;49.716;9.266;2023-07-30T03:29:56;99801.38;;;20.05;96.41
17060;BME280;8646;49.716;9.266;2023-07-30T03:32:59;99803.13;;;20.06;96.29
17060;BME280;8646;49.716;9.266;2023-07-30T03:36:02;99805.72;;;20.08;96.26
17060;BME280;8646;49.716;9.266;2023-07-30T03:39:07;99797.63;;;20.06;96.33
17060;BME280;8646;49.716;9.266;2023-07-30T03:42:09;99792.13;;;20.06;96.43
17060;BME280;8646;49.716;9.266;2023-07-30T03:45:12;99788.66;;;20.04;96.55
17060;BME280;8646;49.716;9.266;2023-07-30T03:48:15;99797.88;;;20.03;96.75
17060;BME280;8646;49.716;9.266;2023-07-30T03:51:18;99805.13;;;20.04;95.96
17060;BME280;8646;49.716;9.266;2023-07-30T03:54:22;99804.53;;;20.01;96.56
17060;BME280;8646;49.716;9.266;2023-07-30T03:57:27;99801.81;;;20.01;95.88
17060;BME280;8646;49.716;9.266;2023-07-30T04:00:33;99797.44;;;19.98;96.59
17060;BME280;8646;49.716;9.266;2023-07-30T04:03:36;99787.47;;;19.97;95.76
17060;BME280;8646;49.716;9.266;2023-07-30T04:06:39;99803.19;;;19.95;95.36
17060;BME280;8646;49.716;9.266;2023-07-30T04:09:43;99809.25;;;19.89;95.99
17060;BME280;8646;49.716;9.266;2023-07-30T04:12:46;99800.75;;;19.92;95.50
17060;BME280;8646;49.716;9.266;2023-07-30T04:15:49;99802.00;;;19.88;97.24
17060;BME280;8646;49.716;9.266;2023-07-30T04:18:52;99815.97;;;19.75;97.73
17060;BME280;8646;49.716;9.266;2023-07-30T04:21:57;99812.75;;;19.70;98.17
17060;BME280;8646;49.716;9.266;2023-07-30T04:25:01;99827.63;;;19.68;98.64
17060;BME280;8646;49.716;9.266;2023-07-30T04:28:04;99827.97;;;19.74;98.50
17060;BME280;8646;49.716;9.266;2023-07-30T04:31:07;99823.53;;;19.83;98.73
17060;BME280;8646;49.716;9.266;2023-07-30T04:34:10;99829.22;;;19.91;98.07
17060;BME280;8646;49.716;9.266;2023-07-30T04:37:12;99833.41;;;19.95;98.07
17060;BME280;8646;49.716;9.266;2023-07-30T04:40:17;99840.13;;;20.02;97.56
17060;BME280;8646;49.716;9.266;2023-07-30T04:43:19;99838.69;;;20.08;96.62
17060;BME280;8646;49.716;9.266;2023-07-30T04:46:22;99838.13;;;20.14;96.61
17060;BME280;8646;49.716;9.266;2023-07-30T04:49:25;99835.88;;;20.29;96.51
17060;BME280;8646;49.716;9.266;2023-07-30T04:52:34;99842.56;;;20.36;96.46
17060;BME280;8646;49.716;9.266;2023-07-30T04:55:38;99833.34;;;20.37;96.41
17060;BME280;8646;49.716;9.266;2023-07-30T04:58:41;99840.88;;;20.35;96.31
17060;BME280;8646;49.716;9.266;2023-07-30T05:01:43;99843.44;;;20.36;96.31
17060;BME280;8646;49.716;9.266;2023-07-30T05:04:46;99844.78;;;20.42;96.18
17060;BME280;8646;49.716;9.266;2023-07-30T05:07:49;99837.13;;;20.45;95.98
17060;BME280;8646;49.716;9.266;2023-07-30T05:10:53;99836.69;;;20.40;95.94
17060;BME280;8646;49.716;9.266;2023-07-30T05:13:56;99840.69;;;20.36;96.45
17060;BME280;8646;49.716;9.266;2023-07-30T05:16:59;99848.94;;;20.36;96.45
17060;BME280;8646;49.716;9.266;2023-07-30T05:20:01;99847.94;;;20.37;96.55
17060;BME280;8646;49.716;9.266;2023-07-30T05:23:04;99856.19;;;20.37;96.54
17060;BME280;8646;49.716;9.266;2023-07-30T05:26:09;99856.50;;;20.44;96.45
17060;BME280;8646;49.716;9.266;2023-07-30T05:29:12;99851.00;;;20.44;96.44
17060;BME280;8646;49.716;9.266;2023-07-30T05:32:15;99853.63;;;20.45;96.12
17060;BME280;8646;49.716;9.266;2023-07-30T05:35:18;99867.22;;;20.47;96.11
17060;BME280;8646;49.716;9.266;2023-07-30T05:38:21;99860.44;;;20.51;95.69
17060;BME280;8646;49.716;9.266;2023-07-30T05:41:27;99852.78;;;20.54;96.15
17060;BME280;8646;49.716;9.266;2023-07-30T05:44:30;99850.94;;;20.65;95.28
17060;BME280;8646;49.716;9.266;2023-07-30T05:47:33;99838.97;;;20.75;94.67
17060;BME280;8646;49.716;9.266;2023-07-30T05:50:36;99846.16;;;20.76;94.78
17060;BME280;8646;49.716;9.266;2023-07-30T05:53:38;99840.53;;;20.78;95.01
17060;BME280;8646;49.716;9.266;2023-07-30T05:56:42;99834.19;;;20.87;94.10
17060;BME280;8646;49.716;9.266;2023-07-30T05:59:48;99834.03;;;20.88;94.36
17060;BME280;8646;49.716;9.266;2023-07-30T06:02:51;99821.56;;;20.84;94.56
17060;BME280;8646;49.716;9.266;2023-07-30T06:05:54;99818.13;;;20.82;95.03
17060;BME280;8646;49.716;9.266;2023-07-30T06:08:57;99811.47;;;20.94;94.81
17060;BME280;8646;49.716;9.266;2023-07-30T06:12:02;99810.31;;;21.07;94.72
17060;BME280;8646;49.716;9.266;2023-07-30T06:15:06;99800.94;;;21.19;94.22
17060;BME280;8646;49.716;9.266;2023-07-30T06:18:10;99813.75;;;21.76;93.87
17060;BME280;8646;49.716;9.266;2023-07-30T06:21:12;99811.38;;;23.10;86.92
17060;BME280;8646;49.716;9.266;2023-07-30T06:24:15;99800.44;;;24.13;81.35
17060;BME280;8646;49.716;9.266;2023-07-30T06:27:20;99796.47;;;24.92;77.49
17060;BME280;8646;49.716;9.266;2023-07-30T06:30:22;99804.66;;;25.50;76.35
17060;BME280;8646;49.716;9.266;2023-07-30T06:33:25;99804.13;;;25.79;74.44
17060;BME280;8646;49.716;9.266;2023-07-30T06:36:30;99807.25;;;25.43;73.93
17060;BME280;8646;49.716;9.266;2023-07-30T06:39:34;99812.97;;;25.42;72.65
17060;BME280;8646;49.716;9.266;2023-07-30T06:42:38;99818.00;;;25.63;72.01
17060;BME280;8646;49.716;9.266;2023-07-30T06:45:41;99826.84;;;25.82;70.87
17060;BME280;8646;49.716;9.266;2023-07-30T06:48:43;99838.44;;;25.94;69.58
17060;BME280;8646;49.716;9.266;2023-07-30T06:51:46;99834.06;;;26.08;68.66
17060;BME280;8646;49.716;9.266;2023-07-30T06:54:52;99823.44;;;26.36;67.27
17060;BME280;8646;49.716;9.266;2023-07-30T06:58:00;99823.50;;;26.67;67.86
17060;BME280;8646;49.716;9.266;2023-07-30T07:01:03;99817.13;;;26.97;65.52
17060;BME280;8646;49.716;9.266;2023-07-30T07:04:06;99802.88;;;27.46;64.80
17060;BME280;8646;49.716;9.266;2023-07-30T07:07:08;99807.66;;;27.60;63.67
17060;BME280;8646;49.716;9.266;2023-07-30T07:10:11;99811.84;;;27.79;62.92
17060;BME280;8646;49.716;9.266;2023-07-30T07:16:57;99809.81;;;27.73;62.02
17060;BME280;8646;49.716;9.266;2023-07-30T07:19:59;99824.81;;;28.01;61.36
17060;BME280;8646;49.716;9.266;2023-07-30T07:23:02;99824.22;;;28.28;60.17
17060;BME280;8646;49.716;9.266;2023-07-30T07:26:05;99823.16;;;28.29;58.66
17060;BME280;8646;49.716;9.266;2023-07-30T07:29:09;99820.44;;;28.65;58.57
17060;BME280;8646;49.716;9.266;2023-07-30T07:32:13;99794.84;;;28.26;58.41
17060;BME280;8646;49.716;9.266;2023-07-30T07:35:16;99808.28;;;28.37;58.36
17060;BME280;8646;49.716;9.266;2023-07-30T07:38:19;99806.94;;;28.18;55.89
17060;BME280;8646;49.716;9.266;2023-07-30T07:41:21;99818.25;;;28.17;55.61
17060;BME280;8646;49.716;9.266;2023-07-30T07:44:24;99806.81;;;27.74;57.17
17060;BME280;8646;49.716;9.266;2023-07-30T07:47:29;99787.41;;;27.06;58.66
17060;BME280;8646;49.716;9.266;2023-07-30T07:50:32;99820.78;;;27.43;58.46
17060;BME280;8646;49.716;9.266;2023-07-30T07:53:35;99833.00;;;27.11;59.32
17060;BME280;8646;49.716;9.266;2023-07-30T07:56:37;99818.78;;;26.75;59.81
17060;BME280;8646;49.716;9.266;2023-07-30T07:59:40;99821.59;;;26.67;61.47
17060;BME280;8646;49.716;9.266;2023-07-30T08:02:47;99813.81;;;26.63;62.86
17060;BME280;8646;49.716;9.266;2023-07-30T08:05:52;99808.59;;;26.59;62.86
17060;BME280;8646;49.716;9.266;2023-07-30T08:08:55;99824.44;;;26.51;63.41
17060;BME280;8646;49.716;9.266;2023-07-30T08:11:59;99821.75;;;26.27;61.32
17060;BME280;8646;49.716;9.266;2023-07-30T08:15:02;99830.25;;;26.09;61.79
17060;BME280;8646;49.716;9.266;2023-07-30T08:18:06;99837.38;;;25.87;62.11
17060;BME280;8646;49.716;9.266;2023-07-30T08:21:09;99834.63;;;25.63;62.83
17060;BME280;8646;49.716;9.266;2023-07-30T08:24:12;99835.66;;;25.37;63.91
17060;BME280;8646;49.716;9.266;2023-07-30T08:27:15;99843.56;;;25.08;65.14
17060;BME280;8646;49.716;9.266;2023-07-30T08:30:18;99863.84;;;24.83;65.83
17060;BME280;8646;49.716;9.266;2023-07-30T08:33:25;99873.25;;;24.48;65.96
17060;BME280;8646;49.716;9.266;2023-07-30T08:36:28;99880.09;;;24.18;67.68
17060;BME280;8646;49.716;9.266;2023-07-30T08:39:31;99895.19;;;23.80;70.77
17060;BME280;8646;49.716;9.266;2023-07-30T08:42:34;99902.50;;;23.36;75.01
17060;BME280;8646;49.716;9.266;2023-07-30T08:45:37;99899.22;;;22.87;75.38
17060;BME280;8646;49.716;9.266;2023-07-30T08:48:41;99893.44;;;22.80;75.96
17060;BME280;8646;49.716;9.266;2023-07-30T08:51:48;99898.41;;;22.77;77.20
17060;BME280;8646;49.716;9.266;2023-07-30T08:55:12;99893.91;;;22.76;77.28
17060;BME280;8646;49.716;9.266;2023-07-30T08:58:34;99893.09;;;22.93;77.74
17060;BME280;8646;49.716;9.266;2023-07-30T09:01:55;99882.88;;;23.21;77.40
17060;BME280;8646;49.716;9.266;2023-07-30T09:05:00;99883.84;;;23.47;76.88
17060;BME280;8646;49.716;9.266;2023-07-30T09:08:03;99880.22;;;23.82;76.47
17060;BME280;8646;49.716;9.266;2023-07-30T09:11:07;99877.41;;;24.26;75.18
17060;BME280;8646;49.716;9.266;2023-07-30T09:14:10;99882.91;;;24.52;75.06
17060;BME280;8646;49.716;9.266;2023-07-30T09:17:16;99880.06;;;24.69;74.02
17060;BME280;8646;49.716;9.266;2023-07-30T09:20:23;99865.97;;;24.89;73.75
17060;BME280;8646;49.716;9.266;2023-07-30T09:23:27;99874.41;;;25.29;72.96
17060;BME280;8646;49.716;9.266;2023-07-30T09:26:30;99857.84;;;25.86;72.45
17060;BME280;8646;49.716;9.266;2023-07-30T09:29:33;99851.88;;;26.38;71.53
17060;BME280;8646;49.716;9.266;2023-07-30T09:32:35;99855.22;;;26.72;70.94
17060;BME280;8646;49.716;9.266;2023-07-30T09:35:39;99837.19;;;27.07;70.83
17060;BME280;8646;49.716;9.266;2023-07-30T09:38:43;99837.34;;;27.14;70.37
17060;BME280;8646;49.716;9.266;2023-07-30T09:41:46;99844.03;;;26.96;70.28
17060;BME280;8646;49.716;9.266;2023-07-30T09:44:49;99854.88;;;26.75;69.39
17060;BME280;8646;49.716;9.266;2023-07-30T09:47:52;99852.47;;;26.64;70.89
17060;BME280;8646;49.716;9.266;2023-07-30T09:50:59;99859.69;;;26.42;71.11
17060;BME280;8646;49.716;9.266;2023-07-30T09:54:02;99833.91;;;26.09;68.17
17060;BME280;8646;49.716;9.266;2023-07-30T09:57:06;99852.47;;;25.93;69.48
17060;BME280;8646;49.716;9.266;2023-07-30T10:00:13;99858.03;;;25.84;67.68
17060;BME280;8646;49.716;9.266;2023-07-30T10:03:15;99861.66;;;25.85;67.51
17060;BME280;8646;49.716;9.266;2023-07-30T10:06:20;99867.19;;;26.01;66.25
17060;BME280;8646;49.716;9.266;2023-07-30T10:09:28;99856.75;;;26.28;66.25
17060;BME280;8646;49.716;9.266;2023-07-30T10:12:34;99862.25;;;26.44;64.69
17060;BME280;8646;49.716;9.266;2023-07-30T10:15:38;99854.25;;;26.57;64.94
17060;BME280;8646;49.716;9.266;2023-07-30T10:18:42;99860.75;;;26.72;63.88
17060;BME280;8646;49.716;9.266;2023-07-30T10:21:47;99862.06;;;26.92;62.86
17060;BME280;8646;49.716;9.266;2023-07-30T10:24:56;99847.94;;;27.10;63.39
17060;BME280;8646;49.716;9.266;2023-07-30T10:27:59;99842.00;;;27.13;61.35
17060;BME280;8646;49.716;9.266;2023-07-30T10:31:05;99840.50;;;27.03;61.22
17060;BME280;8646;49.716;9.266;2023-07-30T10:34:10;99838.06;;;27.08;61.26
17060;BME280;8646;49.716;9.266;2023-07-30T10:37:19;99853.75;;;27.23;61.54
17060;BME280;8646;49.716;9.266;2023-07-30T10:40:22;99849.06;;;27.24;61.22
17060;BME280;8646;49.716;9.266;2023-07-30T10:43:27;99851.91;;;27.16;60.90
17060;BME280;8646;49.716;9.266;2023-07-30T10:46:30;99871.06;;;27.03;59.58
17060;BME280;8646;49.716;9.266;2023-07-30T10:49:35;99898.81;;;26.55;58.03
17060;BME280;8646;49.716;9.266;2023-07-30T10:52:40;99916.06;;;25.86;56.31
17060;BME280;8646;49.716;9.266;2023-07-30T10:55:44;99921.50;;;25.37;55.75
17060;BME280;8646;49.716;9.266;2023-07-30T10:58:49;99910.84;;;25.08;56.44
17060;BME280;8646;49.716;9.266;2023-07-30T11:01:52;99909.97;;;25.00;53.96
17060;BME280;8646;49.716;9.266;2023-07-30T11:04:56;99913.44;;;25.02;56.56
17060;BME280;8646;49.716;9.266;2023-07-30T11:08:00;99910.88;;;25.17;56.23
17060;BME280;8646;49.716;9.266;2023-07-30T11:11:21;99912.16;;;25.46;52.50
17060;BME280;8646;49.716;9.266;2023-07-30T11:14:44;99919.78;;;25.44;54.37
17060;BME280;8646;49.716;9.266;2023-07-30T11:18:04;99919.44;;;25.47;55.27
17060;BME280;8646;49.716;9.266;2023-07-30T11:21:08;99917.75;;;25.63;54.57
17060;BME280;8646;49.716;9.266;2023-07-30T11:24:12;99920.53;;;25.87;49.24
17060;BME280;8646;49.716;9.266;2023-07-30T11:27:15;99919.31;;;25.73;48.35
17060;BME280;8646;49.716;9.266;2023-07-30T11:30:18;99923.66;;;25.68;49.84
17060;BME280;8646;49.716;9.266;2023-07-30T11:33:21;99929.47;;;25.40;49.42
17060;BME280;8646;49.716;9.266;2023-07-30T11:36:25;99936.69;;;25.25;50.43
17060;BME280;8646;49.716;9.266;2023-07-30T11:39:30;99949.84;;;25.23;49.08
17060;BME280;8646;49.716;9.266;2023-07-30T11:42:33;99943.53;;;24.97;50.31
17060;BME280;8646;49.716;9.266;2023-07-30T11:45:36;99954.91;;;24.94;49.45
17060;BME280;8646;49.716;9.266;2023-07-30T11:48:40;99946.47;;;24.69;51.55
17060;BME280;8646;49.716;9.266;2023-07-30T11:51:43;99949.59;;;24.75;50.32
17060;BME280;8646;49.716;9.266;2023-07-30T11:55:00;99965.56;;;24.81;50.89
17060;BME280;8646;49.716;9.266;2023-07-30T11:58:04;99958.03;;;24.99;51.44
17060;BME280;8646;49.716;9.266;2023-07-30T12:01:07;99942.94;;;25.27;47.47
17060;BME280;8646;49.716;9.266;2023-07-30T12:04:10;99946.00;;;25.16;49.52
17060;BME280;8646;49.716;9.266;2023-07-30T12:07:22;99944.88;;;25.43;48.71
17060;BME280;8646;49.716;9.266;2023-07-30T12:10:26;99944.78;;;25.69;49.64
17060;BME280;8646;49.716;9.266;2023-07-30T12:13:29;99954.16;;;25.84;49.46
17060;BME280;8646;49.716;9.266;2023-07-30T12:16:32;99944.09;;;26.07;48.10
17060;BME280;8646;49.716;9.266;2023-07-30T12:19:35;99943.94;;;26.17;47.00
17060;BME280;8646;49.716;9.266;2023-07-30T12:22:38;99937.53;;;26.33;44.28
17060;BME280;8646;49.716;9.266;2023-07-30T12:25:42;99950.34;;;26.50;43.46
17060;BME280;8646;49.716;9.266;2023-07-30T12:28:45;99956.19;;;26.63;41.76
17060;BME280;8646;49.716;9.266;2023-07-30T12:31:47;99979.47;;;26.38;42.45
17060;BME280;8646;49.716;9.266;2023-07-30T12:34:53;99970.09;;;26.14;42.19
17060;BME280;8646;49.716;9.266;2023-07-30T12:37:56;99971.44;;;25.62;43.39
17060;BME280;8646;49.716;9.266;2023-07-30T12:41:00;99993.81;;;25.68;44.33
17060;BME280;8646;49.716;9.266;2023-07-30T12:44:03;99995.97;;;25.57;43.11
17060;BME280;8646;49.716;9.266;2023-07-30T12:47:06;99977.66;;;25.64;41.81
17060;BME280;8646;49.716;9.266;2023-07-30T12:50:09;99980.09;;;25.59;43.41
17060;BME280;8646;49.716;9.266;2023-07-30T12:53:12;99980.13;;;25.83;42.65
17060;BME280;8646;49.716;9.266;2023-07-30T12:56:17;99996.78;;;25.99;41.73
17060;BME280;8646;49.716;9.266;2023-07-30T12:59:19;100004.56;;;25.96;41.55
17060;BME280;8646;49.716;9.266;2023-07-30T13:02:22;99994.69;;;25.85;42.06
17060;BME280;8646;49.716;9.266;2023-07-30T13:05:25;99998.34;;;25.86;40.79
17060;BME280;8646;49.716;9.266;2023-07-30T13:08:28;100007.16;;;25.81;40.03
17060;BME280;8646;49.716;9.266;2023-07-30T13:11:32;100001.25;;;25.76;41.04
17060;BME280;8646;49.716;9.266;2023-07-30T13:14:36;100019.97;;;25.90;40.52
17060;BME280;8646;49.716;9.266;2023-07-30T13:17:38;100016.69;;;26.03;40.34
17060;BME280;8646;49.716;9.266;2023-07-30T13:20:41;100028.38;;;26.31;39.82
17060;BME280;8646;49.716;9.266;2023-07-30T13:23:44;100015.91;;;26.27;38.78
17060;BME280;8646;49.716;9.266;2023-07-30T13:26:48;100013.75;;;26.12;38.18
17060;BME280;8646;49.716;9.266;2023-07-30T13:29:51;100021.16;;;25.71;38.18
17060;BME280;8646;49.716;9.266;2023-07-30T13:32:54;100031.63;;;25.43;39.55
17060;BME280;8646;49.716;9.266;2023-07-30T13:35:57;100027.31;;;25.15;40.54
17060;BME280;8646;49.716;9.266;2023-07-30T13:39:00;100057.22;;;25.03;41.28
17060;BME280;8646;49.716;9.266;2023-07-30T13:42:05;100063.78;;;25.02;40.65
17060;BME280;8646;49.716;9.266;2023-07-30T13:45:08;100063.63;;;25.04;40.31
17060;BME280;8646;49.716;9.266;2023-07-30T13:48:11;100068.44;;;25.02;40.88
17060;BME280;8646;49.716;9.266;2023-07-30T13:51:15;100072.69;;;25.22;41.24
17060;BME280;8646;49.716;9.266;2023-07-30T13:54:17;100054.59;;;25.70;40.88
17060;BME280;8646;49.716;9.266;2023-07-30T13:57:25;100057.78;;;25.99;40.34
17060;BME280;8646;49.716;9.266;2023-07-30T14:00:28;100069.91;;;26.06;40.18
17060;BME280;8646;49.716;9.266;2023-07-30T14:03:31;100059.34;;;25.94;38.03
17060;BME280;8646;49.716;9.266;2023-07-30T14:06:34;100075.88;;;25.61;38.15
17060;BME280;8646;49.716;9.266;2023-07-30T14:09:38;100084.53;;;25.66;37.66
17060;BME280;8646;49.716;9.266;2023-07-30T14:12:42;100101.34;;;25.39;37.20
17060;BME280;8646;49.716;9.266;2023-07-30T14:15:45;100089.94;;;25.08;38.48
17060;BME280;8646;49.716;9.266;2023-07-30T14:18:48;100076.56;;;25.29;39.30
17060;BME280;8646;49.716;9.266;2023-07-30T14:21:51;100089.47;;;25.55;39.51
17060;BME280;8646;49.716;9.266;2023-07-30T14:24:54;100076.22;;;25.66;38.14
17060;BME280;8646;49.716;9.266;2023-07-30T14:27:58;100072.03;;;25.62;38.31
17060;BME280;8646;49.716;9.266;2023-07-30T14:31:01;100073.13;;;25.69;38.33
17060;BME280;8646;49.716;9.266;2023-07-30T14:34:04;100066.72;;;25.69;37.93
17060;BME280;8646;49.716;9.266;2023-07-30T14:37:06;100067.56;;;25.61;37.40
17060;BME280;8646;49.716;9.266;2023-07-30T14:40:11;100081.94;;;25.65;38.07
17060;BME280;8646;49.716;9.266;2023-07-30T14:43:15;100068.97;;;25.73;38.11
17060;BME280;8646;49.716;9.266;2023-07-30T14:46:18;100071.06;;;25.88;36.91
17060;BME280;8646;49.716;9.266;2023-07-30T14:49:21;100083.91;;;25.97;38.25
17060;BME280;8646;49.716;9.266;2023-07-30T14:52:23;100080.72;;;26.34;35.73
17060;BME280;8646;49.716;9.266;2023-07-30T14:55:27;100072.69;;;26.22;35.52
17060;BME280;8646;49.716;9.266;2023-07-30T14:58:31;100070.31;;;26.28;35.88
17060;BME280;8646;49.716;9.266;2023-07-30T15:01:33;100059.03;;;26.29;34.70
17060;BME280;8646;49.716;9.266;2023-07-30T15:04:36;100066.06;;;25.91;34.55
17060;BME280;8646;49.716;9.266;2023-07-30T15:07:39;100057.00;;;25.73;35.48
17060;BME280;8646;49.716;9.266;2023-07-30T15:10:42;100068.50;;;25.86;35.74
17060;BME280;8646;49.716;9.266;2023-07-30T15:13:46;100051.69;;;25.96;35.66
17060;BME280;8646;49.716;9.266;2023-07-30T15:16:49;100060.84;;;25.88;35.97
17060;BME280;8646;49.716;9.266;2023-07-30T15:19:52;100056.00;;;25.82;36.91
17060;BME280;8646;49.716;9.266;2023-07-30T15:22:56;100067.81;;;25.92;36.34
17060;BME280;8646;49.716;9.266;2023-07-30T15:25:58;100066.06;;;25.91;36.18
17060;BME280;8646;49.716;9.266;2023-07-30T15:29:03;100056.56;;;25.94;36.59
17060;BME280;8646;49.716;9.266;2023-07-30T15:32:06;100049.94;;;25.95;35.98
17060;BME280;8646;49.716;9.266;2023-07-30T15:35:09;100053.88;;;25.68;36.24
17060;BME280;8646;49.716;9.266;2023-07-30T15:38:13;100051.03;;;25.52;36.80
17060;BME280;8646;49.716;9.266;2023-07-30T15:41:16;100055.66;;;25.43;37.64
17060;BME280;8646;49.716;9.266;2023-07-30T15:44:20;100052.22;;;25.49;36.96
17060;BME280;8646;49.716;9.266;2023-07-30T15:47:23;100053.38;;;25.38;37.23
17060;BME280;8646;49.716;9.266;2023-07-30T15:50:25;100052.00;;;25.34;37.05
17060;BME280;8646;49.716;9.266;2023-07-30T15:53:28;100054.09;;;25.40;37.92
17060;BME280;8646;49.716;9.266;2023-07-30T15:56:31;100053.25;;;25.48;38.22
17060;BME280;8646;49.716;9.266;2023-07-30T15:59:35;100053.06;;;25.41;37.72
17060;BME280;8646;49.716;9.266;2023-07-30T16:02:39;100051.81;;;25.28;37.45
17060;BME280;8646;49.716;9.266;2023-07-30T16:05:46;100059.59;;;25.32;37.83
17060;BME280;8646;49.716;9.266;2023-07-30T16:08:49;100068.00;;;25.57;37.81
17060;BME280;8646;49.716;9.266;2023-07-30T16:11:52;100057.41;;;25.78;37.28
17060;BME280;8646;49.716;9.266;2023-07-30T16:14:56;100060.81;;;25.72;36.95
17060;BME280;8646;49.716;9.266;2023-07-30T16:17:59;100068.00;;;25.57;37.35
17060;BME280;8646;49.716;9.266;2023-07-30T16:21:02;100049.59;;;25.39;37.33
17060;BME280;8646;49.716;9.266;2023-07-30T16:24:06;100066.00;;;25.33;38.07
17060;BME280;8646;49.716;9.266;2023-07-30T16:27:09;100062.72;;;25.29;38.52